sensor_id;sensor_type;location;lat;lon;timestamp;temperature;humidity
24250;DHT22;12379;49.820;8.648;2022-07-09T00:01:15;17.40;99.90
24250;DHT22;12379;49.820;8.648;2022-07-09T00:03:41;17.40;99.90
24250;DHT22;12379;49.820;8.648;2022-07-09T00:06:06;17.30;99.90
24250;DHT22;12379;49.820;8.648;2022-07-09T00:08:32;17.30;99.90
24250;DHT22;12379;49.820;8.648;2022-07-09T00:10:58;17.30;99.90
24250;DHT22;12379;49.820;8.648;2022-07-09T00:13:23;17.20;99.90
24250;DHT22;12379;49.820;8.648;2022-07-09T00:15:49;17.20;99.90
24250;DHT22;12379;49.820;8.648;2022-07-09T00:18:15;17.20;99.90
24250;DHT22;12379;49.820;8.648;2022-07-09T00:20:41;17.10;99.90
24250;DHT22;12379;49.820;8.648;2022-07-09T00:23:06;17.10;99.90
24250;DHT22;12379;49.820;8.648;2022-07-09T00:25:32;17.00;99.90
24250;DHT22;12379;49.820;8.648;2022-07-09T00:27:58;17.00;99.90
24250;DHT22;12379;49.820;8.648;2022-07-09T00:30:23;17.10;99.90
24250;DHT22;12379;49.820;8.648;2022-07-09T00:32:49;17.00;99.90
24250;DHT22;12379;49.820;8.648;2022-07-09T00:35:14;17.00;99.90
24250;DHT22;12379;49.820;8.648;2022-07-09T00:37:40;17.00;99.90
24250;DHT22;12379;49.820;8.648;2022-07-09T00:40:06;16.90;99.90
24250;DHT22;12379;49.820;8.648;2022-07-09T00:42:32;16.90;99.90
24250;DHT22;12379;49.820;8.648;2022-07-09T00:44:57;16.80;99.90
24250;DHT22;12379;49.820;8.648;2022-07-09T00:47:23;16.80;99.90
24250;DHT22;12379;49.820;8.648;2022-07-09T00:49:48;16.80;99.90
24250;DHT22;12379;49.820;8.648;2022-07-09T00:52:15;16.80;99.90
24250;DHT22;12379;49.820;8.648;2022-07-09T00:54:43;16.80;99.90
24250;DHT22;12379;49.820;8.648;2022-07-09T00:57:10;16.80;99.90
24250;DHT22;12379;49.820;8.648;2022-07-09T00:59:37;16.80;99.90
24250;DHT22;12379;49.820;8.648;2022-07-09T01:02:04;16.80;99.90
24250;DHT22;12379;49.820;8.648;2022-07-09T01:04:30;16.80;99.90
24250;DHT22;12379;49.820;8.648;2022-07-09T01:06:56;16.70;99.90
24250;DHT22;12379;49.820;8.648;2022-07-09T01:09:24;16.70;99.90
24250;DHT22;12379;49.820;8.648;2022-07-09T01:11:49;16.70;99.90
24250;DHT22;12379;49.820;8.648;2022-07-09T01:14:15;16.70;99.90
24250;DHT22;12379;49.820;8.648;2022-07-09T01:16:41;16.70;99.90
24250;DHT22;12379;49.820;8.648;2022-07-09T01:19:06;16.70;99.90
24250;DHT22;12379;49.820;8.648;2022-07-09T01:21:33;16.70;99.90
24250;DHT22;12379;49.820;8.648;2022-07-09T01:23:59;16.70;99.90
24250;DHT22;12379;49.820;8.648;2022-07-09T01:26:25;16.70;99.90
24250;DHT22;12379;49.820;8.648;2022-07-09T01:28:51;16.60;99.90
24250;DHT22;12379;49.820;8.648;2022-07-09T01:31:16;16.50;99.90
24250;DHT22;12379;49.820;8.648;2022-07-09T01:33:42;16.40;99.90
24250;DHT22;12379;49.820;8.648;2022-07-09T01:36:08;16.30;99.90
24250;DHT22;12379;49.820;8.648;2022-07-09T01:38:34;16.20;99.90
24250;DHT22;12379;49.820;8.648;2022-07-09T01:41:00;16.30;99.90
24250;DHT22;12379;49.820;8.648;2022-07-09T01:43:25;16.40;99.90
24250;DHT22;12379;49.820;8.648;2022-07-09T01:45:51;16.40;99.90
24250;DHT22;12379;49.820;8.648;2022-07-09T01:48:17;16.50;99.90
24250;DHT22;12379;49.820;8.648;2022-07-09T01:50:42;16.60;99.90
24250;DHT22;12379;49.820;8.648;2022-07-09T01:53:08;16.60;99.90
24250;DHT22;12379;49.820;8.648;2022-07-09T01:55:34;16.60;99.90
24250;DHT22;12379;49.820;8.648;2022-07-09T01:58:00;16.60;99.90
24250;DHT22;12379;49.820;8.648;2022-07-09T02:00:25;16.60;99.90
24250;DHT22;12379;49.820;8.648;2022-07-09T02:02:53;16.60;99.90
24250;DHT22;12379;49.820;8.648;2022-07-09T02:05:19;16.60;99.90
24250;DHT22;12379;49.820;8.648;2022-07-09T02:07:45;16.60;99.90
24250;DHT22;12379;49.820;8.648;2022-07-09T02:10:12;16.60;99.90
24250;DHT22;12379;49.820;8.648;2022-07-09T02:12:37;16.60;99.90
24250;DHT22;12379;49.820;8.648;2022-07-09T02:15:04;16.50;99.90
24250;DHT22;12379;49.820;8.648;2022-07-09T02:17:31;16.50;99.90
24250;DHT22;12379;49.820;8.648;2022-07-09T02:19:57;16.40;99.90
24250;DHT22;12379;49.820;8.648;2022-07-09T02:22:23;16.50;99.90
24250;DHT22;12379;49.820;8.648;2022-07-09T02:24:48;16.50;99.90
24250;DHT22;12379;49.820;8.648;2022-07-09T02:27:14;16.40;99.90
24250;DHT22;12379;49.820;8.648;2022-07-09T02:29:39;16.40;99.90
24250;DHT22;12379;49.820;8.648;2022-07-09T02:32:05;16.30;99.90
24250;DHT22;12379;49.820;8.648;2022-07-09T02:34:32;16.40;99.90
24250;DHT22;12379;49.820;8.648;2022-07-09T02:36:58;16.30;99.90
24250;DHT22;12379;49.820;8.648;2022-07-09T02:39:23;16.20;99.90
24250;DHT22;12379;49.820;8.648;2022-07-09T02:41:50;16.10;99.90
24250;DHT22;12379;49.820;8.648;2022-07-09T02:44:15;16.10;99.90
24250;DHT22;12379;49.820;8.648;2022-07-09T02:46:41;16.20;99.90
24250;DHT22;12379;49.820;8.648;2022-07-09T02:49:06;16.30;99.90
24250;DHT22;12379;49.820;8.648;2022-07-09T02:51:32;16.30;99.90
24250;DHT22;12379;49.820;8.648;2022-07-09T02:53:57;16.20;99.90
24250;DHT22;12379;49.820;8.648;2022-07-09T02:56:37;16.20;99.90
24250;DHT22;12379;49.820;8.648;2022-07-09T02:59:02;16.20;99.90
24250;DHT22;12379;49.820;8.648;2022-07-09T03:01:28;16.10;99.90
24250;DHT22;12379;49.820;8.648;2022-07-09T03:03:54;16.10;99.90
24250;DHT22;12379;49.820;8.648;2022-07-09T03:06:19;16.00;99.90
24250;DHT22;12379;49.820;8.648;2022-07-09T03:08:45;16.00;99.90
24250;DHT22;12379;49.820;8.648;2022-07-09T03:11:11;16.00;99.90
24250;DHT22;12379;49.820;8.648;2022-07-09T03:13:36;16.00;99.90
24250;DHT22;12379;49.820;8.648;2022-07-09T03:16:03;16.00;99.90
24250;DHT22;12379;49.820;8.648;2022-07-09T03:18:29;16.00;99.90
24250;DHT22;12379;49.820;8.648;2022-07-09T03:20:55;16.00;99.90
24250;DHT22;12379;49.820;8.648;2022-07-09T03:23:21;16.00;99.90
24250;DHT22;12379;49.820;8.648;2022-07-09T03:25:46;16.00;99.90
24250;DHT22;12379;49.820;8.648;2022-07-09T03:28:12;16.00;99.90
24250;DHT22;12379;49.820;8.648;2022-07-09T03:30:38;16.00;99.90
24250;DHT22;12379;49.820;8.648;2022-07-09T03:33:03;16.00;99.90
24250;DHT22;12379;49.820;8.648;2022-07-09T03:35:29;16.00;99.90
24250;DHT22;12379;49.820;8.648;2022-07-09T03:37:54;16.00;99.90
24250;DHT22;12379;49.820;8.648;2022-07-09T03:40:20;16.00;99.90
24250;DHT22;12379;49.820;8.648;2022-07-09T03:42:46;15.90;99.90
24250;DHT22;12379;49.820;8.648;2022-07-09T03:45:12;15.90;99.90
24250;DHT22;12379;49.820;8.648;2022-07-09T03:47:38;15.90;99.90
24250;DHT22;12379;49.820;8.648;2022-07-09T03:50:04;15.90;99.90
24250;DHT22;12379;49.820;8.648;2022-07-09T03:52:30;15.80;99.90
24250;DHT22;12379;49.820;8.648;2022-07-09T03:54:55;15.90;99.90
24250;DHT22;12379;49.820;8.648;2022-07-09T03:57:21;15.90;99.90
24250;DHT22;12379;49.820;8.648;2022-07-09T03:59:47;15.90;99.90
24250;DHT22;12379;49.820;8.648;2022-07-09T04:02:12;15.90;99.90
24250;DHT22;12379;49.820;8.648;2022-07-09T04:04:38;15.90;99.90
24250;DHT22;12379;49.820;8.648;2022-07-09T04:07:03;15.90;99.90
24250;DHT22;12379;49.820;8.648;2022-07-09T04:09:30;16.00;99.90
24250;DHT22;12379;49.820;8.648;2022-07-09T04:11:56;15.90;99.90
24250;DHT22;12379;49.820;8.648;2022-07-09T04:14:21;15.90;99.90
24250;DHT22;12379;49.820;8.648;2022-07-09T04:16:47;16.00;99.90
24250;DHT22;12379;49.820;8.648;2022-07-09T04:19:12;16.00;99.90
24250;DHT22;12379;49.820;8.648;2022-07-09T04:21:39;16.00;99.90
24250;DHT22;12379;49.820;8.648;2022-07-09T04:24:05;16.10;99.90
24250;DHT22;12379;49.820;8.648;2022-07-09T04:26:30;16.10;99.90
24250;DHT22;12379;49.820;8.648;2022-07-09T04:28:56;16.10;99.90
24250;DHT22;12379;49.820;8.648;2022-07-09T04:31:21;16.10;99.90
24250;DHT22;12379;49.820;8.648;2022-07-09T04:33:48;16.10;99.90
24250;DHT22;12379;49.820;8.648;2022-07-09T04:36:13;16.20;99.90
24250;DHT22;12379;49.820;8.648;2022-07-09T04:38:39;16.20;99.90
24250;DHT22;12379;49.820;8.648;2022-07-09T04:41:05;16.20;99.90
24250;DHT22;12379;49.820;8.648;2022-07-09T04:43:31;16.30;99.90
24250;DHT22;12379;49.820;8.648;2022-07-09T04:45:57;16.30;99.90
24250;DHT22;12379;49.820;8.648;2022-07-09T04:48:23;16.40;99.90
24250;DHT22;12379;49.820;8.648;2022-07-09T04:50:48;16.50;99.90
24250;DHT22;12379;49.820;8.648;2022-07-09T04:53:14;16.60;99.90
24250;DHT22;12379;49.820;8.648;2022-07-09T04:55:39;16.70;99.90
24250;DHT22;12379;49.820;8.648;2022-07-09T04:58:05;16.80;99.90
24250;DHT22;12379;49.820;8.648;2022-07-09T05:00:31;16.90;99.90
24250;DHT22;12379;49.820;8.648;2022-07-09T05:02:58;17.00;99.90
24250;DHT22;12379;49.820;8.648;2022-07-09T05:05:24;17.20;99.90
24250;DHT22;12379;49.820;8.648;2022-07-09T05:07:51;17.20;99.90
24250;DHT22;12379;49.820;8.648;2022-07-09T05:10:17;17.40;99.90
24250;DHT22;12379;49.820;8.648;2022-07-09T05:12:42;17.40;99.90
24250;DHT22;12379;49.820;8.648;2022-07-09T05:15:09;17.50;99.90
24250;DHT22;12379;49.820;8.648;2022-07-09T05:17:35;17.60;99.90
24250;DHT22;12379;49.820;8.648;2022-07-09T05:20:02;17.70;99.90
24250;DHT22;12379;49.820;8.648;2022-07-09T05:22:31;17.80;99.90
24250;DHT22;12379;49.820;8.648;2022-07-09T05:24:57;17.90;99.90
24250;DHT22;12379;49.820;8.648;2022-07-09T05:27:22;18.00;99.90
24250;DHT22;12379;49.820;8.648;2022-07-09T05:29:48;18.10;99.90
24250;DHT22;12379;49.820;8.648;2022-07-09T05:32:14;18.20;99.90
24250;DHT22;12379;49.820;8.648;2022-07-09T05:34:39;18.30;99.90
24250;DHT22;12379;49.820;8.648;2022-07-09T05:37:05;18.40;99.90
24250;DHT22;12379;49.820;8.648;2022-07-09T05:39:30;18.40;99.90
24250;DHT22;12379;49.820;8.648;2022-07-09T05:41:56;18.40;99.90
24250;DHT22;12379;49.820;8.648;2022-07-09T05:44:22;18.40;99.90
24250;DHT22;12379;49.820;8.648;2022-07-09T05:49:18;18.70;99.90
24250;DHT22;12379;49.820;8.648;2022-07-09T05:51:50;18.80;99.90
24250;DHT22;12379;49.820;8.648;2022-07-09T05:54:18;19.00;99.90
24250;DHT22;12379;49.820;8.648;2022-07-09T05:56:47;19.40;99.90
24250;DHT22;12379;49.820;8.648;2022-07-09T05:59:12;19.80;99.90
24250;DHT22;12379;49.820;8.648;2022-07-09T06:01:41;20.10;99.90
24250;DHT22;12379;49.820;8.648;2022-07-09T06:04:08;20.00;99.90
24250;DHT22;12379;49.820;8.648;2022-07-09T06:06:37;20.60;99.90
24250;DHT22;12379;49.820;8.648;2022-07-09T06:09:05;20.80;99.90
24250;DHT22;12379;49.820;8.648;2022-07-09T06:11:42;21.20;99.90
24250;DHT22;12379;49.820;8.648;2022-07-09T06:14:10;21.50;99.90
24250;DHT22;12379;49.820;8.648;2022-07-09T06:16:41;21.80;99.90
24250;DHT22;12379;49.820;8.648;2022-07-09T06:19:06;21.80;99.90
24250;DHT22;12379;49.820;8.648;2022-07-09T06:21:40;22.20;99.90
24250;DHT22;12379;49.820;8.648;2022-07-09T06:24:09;22.20;99.90
24250;DHT22;12379;49.820;8.648;2022-07-09T06:26:34;22.70;99.90
24250;DHT22;12379;49.820;8.648;2022-07-09T06:29:03;23.00;99.80
24250;DHT22;12379;49.820;8.648;2022-07-09T06:31:29;23.70;98.60
24250;DHT22;12379;49.820;8.648;2022-07-09T06:33:54;23.90;97.70
24250;DHT22;12379;49.820;8.648;2022-07-09T06:36:24;24.40;97.10
24250;DHT22;12379;49.820;8.648;2022-07-09T06:38:50;24.60;96.30
24250;DHT22;12379;49.820;8.648;2022-07-09T06:41:34;25.30;95.70
24250;DHT22;12379;49.820;8.648;2022-07-09T06:43:59;25.40;94.50
24250;DHT22;12379;49.820;8.648;2022-07-09T06:46:25;25.30;93.50
24250;DHT22;12379;49.820;8.648;2022-07-09T06:48:51;25.40;93.50
24250;DHT22;12379;49.820;8.648;2022-07-09T06:51:17;26.10;92.10
24250;DHT22;12379;49.820;8.648;2022-07-09T06:53:43;26.00;92.60
24250;DHT22;12379;49.820;8.648;2022-07-09T06:56:08;25.90;92.30
24250;DHT22;12379;49.820;8.648;2022-07-09T06:58:40;25.80;92.70
24250;DHT22;12379;49.820;8.648;2022-07-09T07:01:08;25.70;92.30
24250;DHT22;12379;49.820;8.648;2022-07-09T07:03:37;25.70;91.80
24250;DHT22;12379;49.820;8.648;2022-07-09T07:06:11;26.00;91.30
24250;DHT22;12379;49.820;8.648;2022-07-09T07:08:55;26.00;90.90
24250;DHT22;12379;49.820;8.648;2022-07-09T07:11:23;26.00;90.80
24250;DHT22;12379;49.820;8.648;2022-07-09T07:13:55;25.40;90.80
24250;DHT22;12379;49.820;8.648;2022-07-09T07:16:20;25.50;91.80
24250;DHT22;12379;49.820;8.648;2022-07-09T07:18:46;25.90;90.90
24250;DHT22;12379;49.820;8.648;2022-07-09T07:21:12;26.00;90.90
24250;DHT22;12379;49.820;8.648;2022-07-09T07:23:40;26.10;90.10
24250;DHT22;12379;49.820;8.648;2022-07-09T07:26:06;26.10;90.10
24250;DHT22;12379;49.820;8.648;2022-07-09T07:38:20;26.70;86.80
24250;DHT22;12379;49.820;8.648;2022-07-09T07:41:05;26.20;88.20
24250;DHT22;12379;49.820;8.648;2022-07-09T07:43:34;25.40;89.60
24250;DHT22;12379;49.820;8.648;2022-07-09T07:46:02;24.30;91.50
24250;DHT22;12379;49.820;8.648;2022-07-09T07:48:36;24.00;92.50
24250;DHT22;12379;49.820;8.648;2022-07-09T07:51:07;23.80;92.90
24250;DHT22;12379;49.820;8.648;2022-07-09T07:53:59;23.80;93.20
24250;DHT22;12379;49.820;8.648;2022-07-09T07:56:30;24.00;93.20
24250;DHT22;12379;49.820;8.648;2022-07-09T07:59:18;24.20;93.40
24250;DHT22;12379;49.820;8.648;2022-07-09T08:01:45;24.20;93.40
24250;DHT22;12379;49.820;8.648;2022-07-09T08:04:16;24.20;93.50
24250;DHT22;12379;49.820;8.648;2022-07-09T08:06:51;24.10;93.50
24250;DHT22;12379;49.820;8.648;2022-07-09T08:09:43;24.40;93.50
24250;DHT22;12379;49.820;8.648;2022-07-09T08:12:09;25.00;92.80
24250;DHT22;12379;49.820;8.648;2022-07-09T08:14:36;25.60;91.80
24250;DHT22;12379;49.820;8.648;2022-07-09T08:17:15;25.90;91.10
24250;DHT22;12379;49.820;8.648;2022-07-09T08:25:43;25.00;91.70
24250;DHT22;12379;49.820;8.648;2022-07-09T08:28:21;25.00;92.00
24250;DHT22;12379;49.820;8.648;2022-07-09T08:31:19;24.90;91.70
24250;DHT22;12379;49.820;8.648;2022-07-09T08:36:24;24.10;92.60
24250;DHT22;12379;49.820;8.648;2022-07-09T08:39:05;23.90;92.70
24250;DHT22;12379;49.820;8.648;2022-07-09T08:41:31;23.60;93.30
24250;DHT22;12379;49.820;8.648;2022-07-09T08:44:11;23.40;93.30
24250;DHT22;12379;49.820;8.648;2022-07-09T08:46:42;23.70;93.30
24250;DHT22;12379;49.820;8.648;2022-07-09T08:59:52;25.10;91.20
24250;DHT22;12379;49.820;8.648;2022-07-09T09:02:33;25.90;90.30
24250;DHT22;12379;49.820;8.648;2022-07-09T09:05:11;25.60;88.20
24250;DHT22;12379;49.820;8.648;2022-07-09T09:07:37;24.60;90.10
24250;DHT22;12379;49.820;8.648;2022-07-09T09:10:06;24.40;91.10
24250;DHT22;12379;49.820;8.648;2022-07-09T09:12:32;24.40;90.90
24250;DHT22;12379;49.820;8.648;2022-07-09T09:14:58;24.50;91.10
24250;DHT22;12379;49.820;8.648;2022-07-09T09:17:25;24.40;90.70
24250;DHT22;12379;49.820;8.648;2022-07-09T09:19:54;24.20;90.60
24250;DHT22;12379;49.820;8.648;2022-07-09T09:22:29;24.40;90.90
24250;DHT22;12379;49.820;8.648;2022-07-09T09:24:57;24.80;90.00
24250;DHT22;12379;49.820;8.648;2022-07-09T09:27:31;25.10;89.80
24250;DHT22;12379;49.820;8.648;2022-07-09T09:30:00;25.00;88.60
24250;DHT22;12379;49.820;8.648;2022-07-09T09:32:29;24.80;90.10
24250;DHT22;12379;49.820;8.648;2022-07-09T09:34:55;24.30;89.30
24250;DHT22;12379;49.820;8.648;2022-07-09T09:37:28;23.80;90.50
24250;DHT22;12379;49.820;8.648;2022-07-09T09:39:54;23.80;91.40
24250;DHT22;12379;49.820;8.648;2022-07-09T09:42:23;23.80;91.60
24250;DHT22;12379;49.820;8.648;2022-07-09T09:44:50;24.40;91.30
24250;DHT22;12379;49.820;8.648;2022-07-09T09:47:20;24.80;90.00
24250;DHT22;12379;49.820;8.648;2022-07-09T09:49:48;24.60;90.00
24250;DHT22;12379;49.820;8.648;2022-07-09T09:52:14;24.50;90.10
24250;DHT22;12379;49.820;8.648;2022-07-09T09:54:46;24.50;90.00
24250;DHT22;12379;49.820;8.648;2022-07-09T09:57:15;24.60;89.80
24250;DHT22;12379;49.820;8.648;2022-07-09T09:59:43;24.80;88.00
24250;DHT22;12379;49.820;8.648;2022-07-09T10:02:12;24.60;87.50
24250;DHT22;12379;49.820;8.648;2022-07-09T10:04:41;24.40;89.50
24250;DHT22;12379;49.820;8.648;2022-07-09T10:07:09;24.30;89.50
24250;DHT22;12379;49.820;8.648;2022-07-09T10:09:38;24.30;90.60
24250;DHT22;12379;49.820;8.648;2022-07-09T10:12:10;24.20;88.80
24250;DHT22;12379;49.820;8.648;2022-07-09T10:14:56;24.30;90.20
24250;DHT22;12379;49.820;8.648;2022-07-09T10:17:26;24.80;88.00
24250;DHT22;12379;49.820;8.648;2022-07-09T10:19:53;25.20;86.60
24250;DHT22;12379;49.820;8.648;2022-07-09T10:22:40;25.10;86.30
24250;DHT22;12379;49.820;8.648;2022-07-09T10:25:07;25.00;86.20
24250;DHT22;12379;49.820;8.648;2022-07-09T10:27:46;25.00;86.60
24250;DHT22;12379;49.820;8.648;2022-07-09T10:33:12;25.30;87.50
24250;DHT22;12379;49.820;8.648;2022-07-09T10:35:47;25.50;86.30
24250;DHT22;12379;49.820;8.648;2022-07-09T10:38:17;25.40;86.00
24250;DHT22;12379;49.820;8.648;2022-07-09T10:40:47;25.70;87.10
24250;DHT22;12379;49.820;8.648;2022-07-09T10:43:14;26.00;85.70
24250;DHT22;12379;49.820;8.648;2022-07-09T10:45:49;26.30;83.60
24250;DHT22;12379;49.820;8.648;2022-07-09T10:48:18;26.20;82.70
24250;DHT22;12379;49.820;8.648;2022-07-09T10:50:47;25.90;82.70
24250;DHT22;12379;49.820;8.648;2022-07-09T10:53:15;25.90;81.60
24250;DHT22;12379;49.820;8.648;2022-07-09T10:55:46;25.80;80.40
24250;DHT22;12379;49.820;8.648;2022-07-09T10:58:19;26.00;82.80
24250;DHT22;12379;49.820;8.648;2022-07-09T11:01:09;26.00;82.30
24250;DHT22;12379;49.820;8.648;2022-07-09T11:03:35;25.50;82.10
24250;DHT22;12379;49.820;8.648;2022-07-09T11:06:01;25.30;82.50
24250;DHT22;12379;49.820;8.648;2022-07-09T11:08:30;25.10;81.90
24250;DHT22;12379;49.820;8.648;2022-07-09T11:10:59;25.10;82.00
24250;DHT22;12379;49.820;8.648;2022-07-09T11:16:03;25.30;81.30
24250;DHT22;12379;49.820;8.648;2022-07-09T11:18:35;25.40;81.20
24250;DHT22;12379;49.820;8.648;2022-07-09T11:21:04;25.80;79.60
24250;DHT22;12379;49.820;8.648;2022-07-09T11:23:30;26.10;79.00
24250;DHT22;12379;49.820;8.648;2022-07-09T11:25:55;26.20;78.50
24250;DHT22;12379;49.820;8.648;2022-07-09T11:28:22;26.10;78.80
24250;DHT22;12379;49.820;8.648;2022-07-09T12:03:23;25.80;74.40
24250;DHT22;12379;49.820;8.648;2022-07-09T12:05:50;25.80;75.40
24250;DHT22;12379;49.820;8.648;2022-07-09T12:08:28;26.20;72.70
24250;DHT22;12379;49.820;8.648;2022-07-09T12:11:15;26.30;71.70
24250;DHT22;12379;49.820;8.648;2022-07-09T12:14:07;26.40;70.60
24250;DHT22;12379;49.820;8.648;2022-07-09T12:20:21;26.80;69.70
24250;DHT22;12379;49.820;8.648;2022-07-09T12:26:54;26.70;71.30
24250;DHT22;12379;49.820;8.648;2022-07-09T12:36:09;26.10;72.60
24250;DHT22;12379;49.820;8.648;2022-07-09T12:38:46;26.00;72.30
24250;DHT22;12379;49.820;8.648;2022-07-09T12:41:12;25.90;72.30
24250;DHT22;12379;49.820;8.648;2022-07-09T12:43:41;25.90;72.20
24250;DHT22;12379;49.820;8.648;2022-07-09T12:46:09;25.90;72.50
24250;DHT22;12379;49.820;8.648;2022-07-09T12:48:35;25.90;72.70
24250;DHT22;12379;49.820;8.648;2022-07-09T12:51:01;25.80;73.70
24250;DHT22;12379;49.820;8.648;2022-07-09T12:53:27;25.90;72.70
24250;DHT22;12379;49.820;8.648;2022-07-09T12:56:07;26.00;73.10
24250;DHT22;12379;49.820;8.648;2022-07-09T12:58:42;25.80;73.50
24250;DHT22;12379;49.820;8.648;2022-07-09T13:01:11;25.90;72.70
24250;DHT22;12379;49.820;8.648;2022-07-09T13:03:39;25.90;72.90
24250;DHT22;12379;49.820;8.648;2022-07-09T13:06:07;26.20;72.20
24250;DHT22;12379;49.820;8.648;2022-07-09T13:08:51;26.10;71.90
24250;DHT22;12379;49.820;8.648;2022-07-09T13:11:21;26.20;73.00
24250;DHT22;12379;49.820;8.648;2022-07-09T13:13:50;26.30;71.70
24250;DHT22;12379;49.820;8.648;2022-07-09T13:16:15;26.60;72.00
24250;DHT22;12379;49.820;8.648;2022-07-09T13:18:41;26.50;70.70
24250;DHT22;12379;49.820;8.648;2022-07-09T13:21:10;26.20;69.40
24250;DHT22;12379;49.820;8.648;2022-07-09T13:23:35;26.10;69.70
24250;DHT22;12379;49.820;8.648;2022-07-09T13:26:02;26.10;70.70
24250;DHT22;12379;49.820;8.648;2022-07-09T13:28:31;26.30;69.70
24250;DHT22;12379;49.820;8.648;2022-07-09T13:31:10;26.10;68.80
24250;DHT22;12379;49.820;8.648;2022-07-09T13:33:39;26.00;69.70
24250;DHT22;12379;49.820;8.648;2022-07-09T13:36:10;26.00;70.70
24250;DHT22;12379;49.820;8.648;2022-07-09T13:38:36;26.20;69.60
24250;DHT22;12379;49.820;8.648;2022-07-09T13:41:07;26.10;71.00
24250;DHT22;12379;49.820;8.648;2022-07-09T13:43:38;26.10;71.20
24250;DHT22;12379;49.820;8.648;2022-07-09T13:46:06;26.10;71.20
24250;DHT22;12379;49.820;8.648;2022-07-09T13:48:34;26.20;71.90
24250;DHT22;12379;49.820;8.648;2022-07-09T13:51:05;26.30;72.00
24250;DHT22;12379;49.820;8.648;2022-07-09T13:53:33;26.40;70.80
24250;DHT22;12379;49.820;8.648;2022-07-09T13:56:02;26.60;71.10
24250;DHT22;12379;49.820;8.648;2022-07-09T13:58:31;26.60;70.30
24250;DHT22;12379;49.820;8.648;2022-07-09T14:00:57;26.50;69.20
24250;DHT22;12379;49.820;8.648;2022-07-09T14:03:22;26.40;69.10
24250;DHT22;12379;49.820;8.648;2022-07-09T14:05:48;26.60;69.10
24250;DHT22;12379;49.820;8.648;2022-07-09T14:08:14;26.70;67.50
24250;DHT22;12379;49.820;8.648;2022-07-09T14:10:39;26.80;67.20
24250;DHT22;12379;49.820;8.648;2022-07-09T14:13:05;26.80;66.10
24250;DHT22;12379;49.820;8.648;2022-07-09T14:15:31;26.60;66.60
24250;DHT22;12379;49.820;8.648;2022-07-09T14:18:11;26.80;66.50
24250;DHT22;12379;49.820;8.648;2022-07-09T14:20:37;26.70;66.40
24250;DHT22;12379;49.820;8.648;2022-07-09T14:23:03;26.70;66.10
24250;DHT22;12379;49.820;8.648;2022-07-09T14:25:28;26.60;63.70
24250;DHT22;12379;49.820;8.648;2022-07-09T14:27:54;26.50;63.50
24250;DHT22;12379;49.820;8.648;2022-07-09T14:30:20;26.40;63.30
24250;DHT22;12379;49.820;8.648;2022-07-09T14:32:45;26.30;63.30
24250;DHT22;12379;49.820;8.648;2022-07-09T14:35:11;26.10;63.60
24250;DHT22;12379;49.820;8.648;2022-07-09T14:37:40;26.00;64.70
24250;DHT22;12379;49.820;8.648;2022-07-09T14:40:06;25.90;65.30
24250;DHT22;12379;49.820;8.648;2022-07-09T14:42:34;25.70;65.50
24250;DHT22;12379;49.820;8.648;2022-07-09T14:45:00;25.80;66.50
24250;DHT22;12379;49.820;8.648;2022-07-09T14:47:32;26.00;66.00
24250;DHT22;12379;49.820;8.648;2022-07-09T14:50:01;26.10;66.80
24250;DHT22;12379;49.820;8.648;2022-07-09T14:52:29;26.10;65.30
24250;DHT22;12379;49.820;8.648;2022-07-09T14:55:01;26.10;65.70
24250;DHT22;12379;49.820;8.648;2022-07-09T14:57:27;26.00;64.50
24250;DHT22;12379;49.820;8.648;2022-07-09T14:59:58;25.90;64.20
24250;DHT22;12379;49.820;8.648;2022-07-09T15:02:26;25.90;65.00
24250;DHT22;12379;49.820;8.648;2022-07-09T15:04:54;26.00;65.70
24250;DHT22;12379;49.820;8.648;2022-07-09T15:07:23;26.00;65.70
24250;DHT22;12379;49.820;8.648;2022-07-09T15:09:49;25.80;65.80
24250;DHT22;12379;49.820;8.648;2022-07-09T15:12:18;25.70;65.30
24250;DHT22;12379;49.820;8.648;2022-07-09T15:14:44;25.80;65.70
24250;DHT22;12379;49.820;8.648;2022-07-09T15:17:17;25.80;64.90
24250;DHT22;12379;49.820;8.648;2022-07-09T15:23:07;26.10;65.00
24250;DHT22;12379;49.820;8.648;2022-07-09T15:25:33;26.00;63.60
24250;DHT22;12379;49.820;8.648;2022-07-09T15:28:07;26.10;64.70
24250;DHT22;12379;49.820;8.648;2022-07-09T15:30:33;26.20;65.00
24250;DHT22;12379;49.820;8.648;2022-07-09T15:33:00;26.30;63.60
24250;DHT22;12379;49.820;8.648;2022-07-09T15:35:28;26.40;63.20
24250;DHT22;12379;49.820;8.648;2022-07-09T15:37:54;26.20;63.00
24250;DHT22;12379;49.820;8.648;2022-07-09T15:40:22;26.00;64.10
24250;DHT22;12379;49.820;8.648;2022-07-09T15:42:52;25.90;64.50
24250;DHT22;12379;49.820;8.648;2022-07-09T15:45:23;26.00;63.80
24250;DHT22;12379;49.820;8.648;2022-07-09T15:47:49;26.00;64.30
24250;DHT22;12379;49.820;8.648;2022-07-09T15:50:21;26.00;64.40
24250;DHT22;12379;49.820;8.648;2022-07-09T15:52:49;26.00;63.90
24250;DHT22;12379;49.820;8.648;2022-07-09T15:55:20;25.90;64.80
24250;DHT22;12379;49.820;8.648;2022-07-09T15:57:45;26.00;63.50
24250;DHT22;12379;49.820;8.648;2022-07-09T16:00:17;25.70;63.70
24250;DHT22;12379;49.820;8.648;2022-07-09T16:02:49;25.70;64.50
24250;DHT22;12379;49.820;8.648;2022-07-09T16:05:20;25.60;64.80
24250;DHT22;12379;49.820;8.648;2022-07-09T16:07:45;25.60;64.80
24250;DHT22;12379;49.820;8.648;2022-07-09T16:10:16;25.50;64.70
24250;DHT22;12379;49.820;8.648;2022-07-09T16:12:45;25.40;64.70
24250;DHT22;12379;49.820;8.648;2022-07-09T16:15:24;25.50;64.90
24250;DHT22;12379;49.820;8.648;2022-07-09T16:17:58;25.40;65.40
24250;DHT22;12379;49.820;8.648;2022-07-09T16:20:39;25.40;64.70
24250;DHT22;12379;49.820;8.648;2022-07-09T16:23:10;25.40;66.30
24250;DHT22;12379;49.820;8.648;2022-07-09T16:25:39;25.30;65.40
24250;DHT22;12379;49.820;8.648;2022-07-09T16:28:05;25.20;65.70
24250;DHT22;12379;49.820;8.648;2022-07-09T16:30:34;25.20;66.20
24250;DHT22;12379;49.820;8.648;2022-07-09T16:33:00;25.10;66.30
24250;DHT22;12379;49.820;8.648;2022-07-09T16:35:27;25.10;66.30
24250;DHT22;12379;49.820;8.648;2022-07-09T16:37:53;25.10;65.70
24250;DHT22;12379;49.820;8.648;2022-07-09T16:40:21;25.00;66.00
24250;DHT22;12379;49.820;8.648;2022-07-09T16:42:47;24.80;66.40
24250;DHT22;12379;49.820;8.648;2022-07-09T16:45:13;24.80;68.00
24250;DHT22;12379;49.820;8.648;2022-07-09T16:47:38;24.80;67.70
24250;DHT22;12379;49.820;8.648;2022-07-09T16:50:07;24.80;67.40
24250;DHT22;12379;49.820;8.648;2022-07-09T16:52:33;24.70;68.30
24250;DHT22;12379;49.820;8.648;2022-07-09T16:54:59;24.70;69.10
24250;DHT22;12379;49.820;8.648;2022-07-09T16:57:24;24.50;70.60
24250;DHT22;12379;49.820;8.648;2022-07-09T16:59:51;24.30;73.40
24250;DHT22;12379;49.820;8.648;2022-07-09T17:02:18;24.10;76.50
24250;DHT22;12379;49.820;8.648;2022-07-09T17:04:43;23.90;77.60